sensor_id;sensor_type;location;lat;lon;timestamp;pressure;altitude;pressure_sealevel;temperature;humidity
64023;BME280;50264;52.088;5.296;2023-04-04T00:01:31;103052.0;;;0.83;79.75
64023;BME280;50264;52.088;5.296;2023-04-04T00:03:07;103053.0;;;0.79;80.23
64023;BME280;50264;52.088;5.296;2023-04-04T00:06:20;103054.0;;;0.93;80.44
64023;BME280;50264;52.088;5.296;2023-04-04T00:07:56;103045.0;;;0.91;80.0
64023;BME280;50264;52.088;5.296;2023-04-04T00:09:32;103048.0;;;0.9;80.06
64023;BME280;50264;52.088;5.296;2023-04-04T00:11:08;103043.0;;;0.88;79.2
64023;BME280;50264;52.088;5.296;2023-04-04T00:14:21;103045.0;;;0.9;79.73
64023;BME280;50264;52.088;5.296;2023-04-04T00:15:57;103046.0;;;0.89;79.8
64023;BME280;50264;52.088;5.296;2023-04-04T00:17:33;103047.0;;;1.04;78.42
64023;BME280;50264;52.088;5.296;2023-04-04T00:20:45;103033.99999999999;;;0.96;78.08
64023;BME280;50264;52.088;5.296;2023-04-04T00:22:21;103038.00000000001;;;0.86;78.69
64023;BME280;50264;52.088;5.296;2023-04-04T00:23:58;103034.99999999999;;;0.82;79.39
64023;BME280;50264;52.088;5.296;2023-04-04T00:27:10;103038.00000000001;;;0.94;79.7
64023;BME280;50264;52.088;5.296;2023-04-04T00:28:46;103030.0;;;1.12;78.89
64023;BME280;50264;52.088;5.296;2023-04-04T00:30:22;103028.0;;;0.96;78.34
64023;BME280;50264;52.088;5.296;2023-04-04T00:33:34;103023.0;;;1.1;78.8
64023;BME280;50264;52.088;5.296;2023-04-04T00:35:11;103019.0;;;1.2;77.78
64023;BME280;50264;52.088;5.296;2023-04-04T00:36:47;103018.0;;;1.17;78.2
64023;BME280;50264;52.088;5.296;2023-04-04T00:38:23;103015.00000000001;;;1.28;79.0
64023;BME280;50264;52.088;5.296;2023-04-04T00:41:35;103013.00000000001;;;1.02;79.11
64023;BME280;50264;52.088;5.296;2023-04-04T00:43:11;103011.99999999999;;;0.98;79.63
64023;BME280;50264;52.088;5.296;2023-04-04T00:44:50;103016.00000000001;;;0.98;79.55
64023;BME280;50264;52.088;5.296;2023-04-04T00:48:03;103015.00000000001;;;0.88;80.33
64023;BME280;50264;52.088;5.296;2023-04-04T00:49:39;103017.0;;;0.84;79.91
64023;BME280;50264;52.088;5.296;2023-04-04T00:51:15;103018.0;;;0.79;79.86
64023;BME280;50264;52.088;5.296;2023-04-04T00:54:28;103015.00000000001;;;0.75;80.86
64023;BME280;50264;52.088;5.296;2023-04-04T00:56:07;103015.00000000001;;;0.75;80.98
64023;BME280;50264;52.088;5.296;2023-04-04T00:57:44;103015.00000000001;;;0.69;80.97
64023;BME280;50264;52.088;5.296;2023-04-04T00:59:21;103015.00000000001;;;0.73;80.97
64023;BME280;50264;52.088;5.296;2023-04-04T01:02:35;103017.0;;;0.63;81.42
64023;BME280;50264;52.088;5.296;2023-04-04T01:04:11;103014.00000000001;;;0.74;82.29
64023;BME280;50264;52.088;5.296;2023-04-04T01:05:47;103008.99999999999;;;0.58;81.61
64023;BME280;50264;52.088;5.296;2023-04-04T01:09:01;103014.00000000001;;;0.64;81.31
64023;BME280;50264;52.088;5.296;2023-04-04T01:10:38;103017.0;;;0.82;80.8
64023;BME280;50264;52.088;5.296;2023-04-04T01:12:15;103016.00000000001;;;0.79;80.97
64023;BME280;50264;52.088;5.296;2023-04-04T01:15:27;103014.00000000001;;;0.73;81.44
64023;BME280;50264;52.088;5.296;2023-04-04T01:17:04;103015.00000000001;;;0.63;81.33
64023;BME280;50264;52.088;5.296;2023-04-04T01:18:41;103015.00000000001;;;0.58;80.97
64023;BME280;50264;52.088;5.296;2023-04-04T01:20:21;103008.99999999999;;;0.65;81.33
64023;BME280;50264;52.088;5.296;2023-04-04T01:23:46;103009.99999999999;;;0.61;80.84
64023;BME280;50264;52.088;5.296;2023-04-04T01:25:34;103008.0;;;0.71;81.06
64023;BME280;50264;52.088;5.296;2023-04-04T01:27:11;103003.0;;;0.47;81.16
64023;BME280;50264;52.088;5.296;2023-04-04T01:28:47;103008.0;;;0.45;81.84
64023;BME280;50264;52.088;5.296;2023-04-04T01:32:07;103015.00000000001;;;0.49;82.16
64023;BME280;50264;52.088;5.296;2023-04-04T01:33:54;103017.0;;;0.37;82.08
64023;BME280;50264;52.088;5.296;2023-04-04T01:35:42;103019.0;;;0.33;82.91
64023;BME280;50264;52.088;5.296;2023-04-04T01:37:26;103020.0;;;0.29;83.06
64023;BME280;50264;52.088;5.296;2023-04-04T01:39:10;103017.0;;;0.36;83.34
64023;BME280;50264;52.088;5.296;2023-04-04T01:42:36;103018.0;;;0.4;82.79
64023;BME280;50264;52.088;5.296;2023-04-04T01:44:15;103015.00000000001;;;0.4;82.87
64023;BME280;50264;52.088;5.296;2023-04-04T01:45:52;103007.0;;;0.59;82.94
64023;BME280;50264;52.088;5.296;2023-04-04T01:47:28;103016.00000000001;;;0.68;81.8
64023;BME280;50264;52.088;5.296;2023-04-04T01:50:39;103017.0;;;0.6;82.08
64023;BME280;50264;52.088;5.296;2023-04-04T01:52:15;103019.0;;;0.24;82.2
64023;BME280;50264;52.088;5.296;2023-04-04T01:53:51;103015.00000000001;;;0.23;83.12
64023;BME280;50264;52.088;5.296;2023-04-04T01:57:04;103014.00000000001;;;0.38;82.75
64023;BME280;50264;52.088;5.296;2023-04-04T01:58:40;103014.00000000001;;;0.52;82.5
64023;BME280;50264;52.088;5.296;2023-04-04T02:00:16;103009.99999999999;;;0.65;82.36
64023;BME280;50264;52.088;5.296;2023-04-04T02:03:28;103007.0;;;0.39;81.94
64023;BME280;50264;52.088;5.296;2023-04-04T02:05:05;103008.0;;;0.41;81.91
64023;BME280;50264;52.088;5.296;2023-04-04T02:06:42;103016.00000000001;;;0.29;82.2
64023;BME280;50264;52.088;5.296;2023-04-04T02:08:18;103011.99999999999;;;0.3;82.32
64023;BME280;50264;52.088;5.296;2023-04-04T02:11:30;103006.0;;;0.46;82.31
64023;BME280;50264;52.088;5.296;2023-04-04T02:13:06;103007.0;;;0.32;81.53
64023;BME280;50264;52.088;5.296;2023-04-04T02:14:42;103006.0;;;0.38;82.57
64023;BME280;50264;52.088;5.296;2023-04-04T02:17:55;103008.0;;;0.29;82.67
64023;BME280;50264;52.088;5.296;2023-04-04T02:19:31;103017.0;;;0.18;83.59
64023;BME280;50264;52.088;5.296;2023-04-04T02:21:07;103020.0;;;0.11;83.98
64023;BME280;50264;52.088;5.296;2023-04-04T02:24:25;103019.0;;;0.09;84.34
64023;BME280;50264;52.088;5.296;2023-04-04T02:26:01;103017.0;;;0.06;83.53
64023;BME280;50264;52.088;5.296;2023-04-04T02:27:38;103017.0;;;0.15;83.86
64023;BME280;50264;52.088;5.296;2023-04-04T02:29:14;103016.00000000001;;;0.09;84.06
64023;BME280;50264;52.088;5.296;2023-04-04T02:32:26;103022.0;;;0.18;84.38
64023;BME280;50264;52.088;5.296;2023-04-04T02:34:02;103018.0;;;0.33;83.38
64023;BME280;50264;52.088;5.296;2023-04-04T02:35:38;103016.00000000001;;;0.26;83.1
64023;BME280;50264;52.088;5.296;2023-04-04T02:38:51;103017.0;;;0.23;83.12
64023;BME280;50264;52.088;5.296;2023-04-04T02:40:27;103019.0;;;0.18;82.33
64023;BME280;50264;52.088;5.296;2023-04-04T02:42:03;103011.99999999999;;;0.22;82.57
64023;BME280;50264;52.088;5.296;2023-04-04T02:45:15;103016.00000000001;;;0.2;83.41
64023;BME280;50264;52.088;5.296;2023-04-04T02:46:52;103009.99999999999;;;0.18;82.52
64023;BME280;50264;52.088;5.296;2023-04-04T02:48:28;103004.0;;;0.19;83.55
64023;BME280;50264;52.088;5.296;2023-04-04T02:51:41;103003.0;;;0.08;82.73
64023;BME280;50264;52.088;5.296;2023-04-04T02:53:17;103004.0;;;0.04;82.92
64023;BME280;50264;52.088;5.296;2023-04-04T02:54:53;102998.0;;;0.08;83.74
64023;BME280;50264;52.088;5.296;2023-04-04T02:56:29;102999.0;;;0.15;84.06
64023;BME280;50264;52.088;5.296;2023-04-04T02:59:42;102997.0;;;0.09;83.72
64023;BME280;50264;52.088;5.296;2023-04-04T03:01:18;102990.00000000001;;;0.22;83.58
64023;BME280;50264;52.088;5.296;2023-04-04T03:02:54;102988.00000000001;;;0.29;83.57
64023;BME280;50264;52.088;5.296;2023-04-04T03:06:07;102988.00000000001;;;0.35;82.56
64023;BME280;50264;52.088;5.296;2023-04-04T03:07:43;102979.0;;;0.27;83.0
64023;BME280;50264;52.088;5.296;2023-04-04T03:09:19;102979.0;;;0.36;83.12
64023;BME280;50264;52.088;5.296;2023-04-04T03:12:32;102980.0;;;0.46;82.47
64023;BME280;50264;52.088;5.296;2023-04-04T03:14:08;102986.99999999999;;;0.53;82.49
64023;BME280;50264;52.088;5.296;2023-04-04T03:15:44;102983.99999999999;;;0.23;82.78
64023;BME280;50264;52.088;5.296;2023-04-04T03:17:20;102991.00000000001;;;0.15;83.18
64023;BME280;50264;52.088;5.296;2023-04-04T03:20:33;102992.0;;;0.15;83.8
64023;BME280;50264;52.088;5.296;2023-04-04T03:22:09;102993.0;;;0.15;83.59
64023;BME280;50264;52.088;5.296;2023-04-04T03:23:45;102993.0;;;0.18;83.62
64023;BME280;50264;52.088;5.296;2023-04-04T03:26:58;102996.0;;;0.02;84.24
64023;BME280;50264;52.088;5.296;2023-04-04T03:28:34;102995.0;;;0.04;83.31
64023;BME280;50264;52.088;5.296;2023-04-04T03:30:11;102991.00000000001;;;0.22;83.83
64023;BME280;50264;52.088;5.296;2023-04-04T03:33:24;102986.99999999999;;;0.1;83.35
64023;BME280;50264;52.088;5.296;2023-04-04T03:35:00;102989.00000000001;;;0.02;83.66
64023;BME280;50264;52.088;5.296;2023-04-04T03:36:36;102986.99999999999;;;0.05;83.77
64023;BME280;50264;52.088;5.296;2023-04-04T03:39:48;102986.99999999999;;;0.08;84.22
64023;BME280;50264;52.088;5.296;2023-04-04T03:41:24;102982.0;;;0.13;84.55
64023;BME280;50264;52.088;5.296;2023-04-04T03:43:01;102977.0;;;0.12;84.53
64023;BME280;50264;52.088;5.296;2023-04-04T03:44:38;102975.0;;;0.13;84.83
64023;BME280;50264;52.088;5.296;2023-04-04T03:47:51;102979.0;;;-0.05;85.1
64023;BME280;50264;52.088;5.296;2023-04-04T03:49:27;102976.0;;;-0.1;84.72
64023;BME280;50264;52.088;5.296;2023-04-04T03:51:03;102983.0;;;-0.21;85.67
64023;BME280;50264;52.088;5.296;2023-04-04T03:54:15;102978.0;;;-0.2;85.71
64023;BME280;50264;52.088;5.296;2023-04-04T03:55:53;102977.0;;;-0.19;85.47
64023;BME280;50264;52.088;5.296;2023-04-04T03:57:31;102980.0;;;-0.2;85.92
64023;BME280;50264;52.088;5.296;2023-04-04T04:00:43;102984.99999999999;;;-0.41;85.51
64023;BME280;50264;52.088;5.296;2023-04-04T04:02:19;102981.0;;;-0.47;86.39
64023;BME280;50264;52.088;5.296;2023-04-04T04:03:55;102977.0;;;-0.5;86.89
64023;BME280;50264;52.088;5.296;2023-04-04T04:05:31;102977.0;;;-0.4;86.58
64023;BME280;50264;52.088;5.296;2023-04-04T04:08:44;102976.0;;;-0.35;86.53
64023;BME280;50264;52.088;5.296;2023-04-04T04:10:21;102981.0;;;-0.44;86.37
64023;BME280;50264;52.088;5.296;2023-04-04T04:11:57;102980.0;;;-0.4;86.79
64023;BME280;50264;52.088;5.296;2023-04-04T04:15:10;102982.0;;;-0.37;86.87
64023;BME280;50264;52.088;5.296;2023-04-04T04:16:46;102980.0;;;-0.42;86.72
64023;BME280;50264;52.088;5.296;2023-04-04T04:18:22;102984.99999999999;;;-0.38;86.79
64023;BME280;50264;52.088;5.296;2023-04-04T04:21:35;102988.00000000001;;;-0.46;86.95
64023;BME280;50264;52.088;5.296;2023-04-04T04:23:11;102992.0;;;-0.52;86.94
64023;BME280;50264;52.088;5.296;2023-04-04T04:24:47;102988.00000000001;;;-0.48;87.28
64023;BME280;50264;52.088;5.296;2023-04-04T04:26:23;102983.99999999999;;;-0.42;86.83
64023;BME280;50264;52.088;5.296;2023-04-04T04:29:36;102983.99999999999;;;-0.4;86.56
64023;BME280;50264;52.088;5.296;2023-04-04T04:31:13;102989.00000000001;;;-0.44;86.96
64023;BME280;50264;52.088;5.296;2023-04-04T04:32:49;102982.0;;;-0.47;87.03
64023;BME280;50264;52.088;5.296;2023-04-04T04:36:02;102983.99999999999;;;-0.49;86.72
64023;BME280;50264;52.088;5.296;2023-04-04T04:37:39;102982.0;;;-0.47;86.69
64023;BME280;50264;52.088;5.296;2023-04-04T04:39:15;102986.99999999999;;;-0.51;87.09
64023;BME280;50264;52.088;5.296;2023-04-04T04:42:28;102990.00000000001;;;-0.48;87.68
64023;BME280;50264;52.088;5.296;2023-04-04T04:44:04;102982.0;;;-0.39;87.08
64023;BME280;50264;52.088;5.296;2023-04-04T04:45:40;102976.0;;;-0.48;86.8
64023;BME280;50264;52.088;5.296;2023-04-04T04:47:16;102979.0;;;-0.5;86.96
64023;BME280;50264;52.088;5.296;2023-04-04T04:50:28;102980.0;;;-0.53;86.77
64023;BME280;50264;52.088;5.296;2023-04-04T04:52:04;102992.0;;;-0.53;86.92
64023;BME280;50264;52.088;5.296;2023-04-04T04:53:40;102988.00000000001;;;-0.73;87.32
64023;BME280;50264;52.088;5.296;2023-04-04T04:56:53;102993.0;;;-0.82;87.31
64023;BME280;50264;52.088;5.296;2023-04-04T04:58:29;102996.0;;;-0.88;87.62
64023;BME280;50264;52.088;5.296;2023-04-04T05:00:06;103002.0;;;-0.88;86.57
64023;BME280;50264;52.088;5.296;2023-04-04T05:03:18;103006.0;;;-0.92;86.49
64023;BME280;50264;52.088;5.296;2023-04-04T05:04:54;103004.0;;;-1.0;87.33
64023;BME280;50264;52.088;5.296;2023-04-04T05:06:31;103003.0;;;-1.01;87.15
64023;BME280;50264;52.088;5.296;2023-04-04T05:09:43;103004.0;;;-1.04;87.38
64023;BME280;50264;52.088;5.296;2023-04-04T05:11:19;102998.0;;;-1.02;87.76
64023;BME280;50264;52.088;5.296;2023-04-04T05:12:56;103003.0;;;-0.94;88.47
64023;BME280;50264;52.088;5.296;2023-04-04T05:14:32;102999.0;;;-0.85;88.2
64023;BME280;50264;52.088;5.296;2023-04-04T05:17:45;102999.0;;;-0.82;87.86
64023;BME280;50264;52.088;5.296;2023-04-04T05:19:21;102997.0;;;-0.8;87.84
64023;BME280;50264;52.088;5.296;2023-04-04T05:20:57;102996.0;;;-0.78;87.7
64023;BME280;50264;52.088;5.296;2023-04-04T05:24:09;102996.0;;;-0.87;87.49
64023;BME280;50264;52.088;5.296;2023-04-04T05:25:47;102996.0;;;-0.7;88.0
64023;BME280;50264;52.088;5.296;2023-04-04T05:27:23;102998.0;;;-0.55;87.76
64023;BME280;50264;52.088;5.296;2023-04-04T05:30:36;102999.0;;;-0.45;87.04
64023;BME280;50264;52.088;5.296;2023-04-04T05:32:12;103003.0;;;-0.59;86.67
64023;BME280;50264;52.088;5.296;2023-04-04T05:33:48;103001.0;;;-0.75;86.55
64023;BME280;50264;52.088;5.296;2023-04-04T05:35:24;102999.0;;;-0.95;86.83
64023;BME280;50264;52.088;5.296;2023-04-04T05:38:36;103002.0;;;-1.02;87.69
64023;BME280;50264;52.088;5.296;2023-04-04T05:40:13;102998.0;;;-1.01;87.27
64023;BME280;50264;52.088;5.296;2023-04-04T05:41:49;102999.0;;;-1.05;87.42
64023;BME280;50264;52.088;5.296;2023-04-04T05:45:00;103002.0;;;-1.13;87.68
64023;BME280;50264;52.088;5.296;2023-04-04T05:46:37;103007.0;;;-1.18;87.79
64023;BME280;50264;52.088;5.296;2023-04-04T05:48:13;103004.0;;;-1.17;88.29
64023;BME280;50264;52.088;5.296;2023-04-04T05:51:26;103003.0;;;-1.12;88.32
64023;BME280;50264;52.088;5.296;2023-04-04T05:53:02;103006.0;;;-1.14;87.96
64023;BME280;50264;52.088;5.296;2023-04-04T05:54:38;103011.99999999999;;;-1.15;88.16
64023;BME280;50264;52.088;5.296;2023-04-04T05:57:50;103009.99999999999;;;-1.21;88.7
64023;BME280;50264;52.088;5.296;2023-04-04T05:59:26;103008.0;;;-1.19;89.21
64023;BME280;50264;52.088;5.296;2023-04-04T06:01:05;103008.0;;;-1.15;88.6
64023;BME280;50264;52.088;5.296;2023-04-04T06:02:42;103007.0;;;-1.04;88.96
64023;BME280;50264;52.088;5.296;2023-04-04T06:05:54;103015.00000000001;;;-0.99;88.97
64023;BME280;50264;52.088;5.296;2023-04-04T06:07:30;103009.99999999999;;;-0.93;88.66
64023;BME280;50264;52.088;5.296;2023-04-04T06:09:06;103009.99999999999;;;-1.0;88.5
64023;BME280;50264;52.088;5.296;2023-04-04T06:12:19;103002.0;;;-0.91;89.09
64023;BME280;50264;52.088;5.296;2023-04-04T06:13:55;103001.0;;;-0.92;88.74
64023;BME280;50264;52.088;5.296;2023-04-04T06:15:31;102999.0;;;-0.9;88.73
64023;BME280;50264;52.088;5.296;2023-04-04T06:18:43;103007.0;;;-0.87;89.0
64023;BME280;50264;52.088;5.296;2023-04-04T06:20:20;103007.0;;;-0.83;88.9
64023;BME280;50264;52.088;5.296;2023-04-04T06:21:56;103004.0;;;-0.85;88.39
64023;BME280;50264;52.088;5.296;2023-04-04T06:23:33;103002.0;;;-0.61;88.7
64023;BME280;50264;52.088;5.296;2023-04-04T06:26:45;103000.0;;;-0.65;88.07
64023;BME280;50264;52.088;5.296;2023-04-04T06:28:21;103000.0;;;-0.64;88.33
64023;BME280;50264;52.088;5.296;2023-04-04T06:29:57;102993.0;;;-0.61;88.69
64023;BME280;50264;52.088;5.296;2023-04-04T06:33:09;102991.00000000001;;;-0.59;88.47
64023;BME280;50264;52.088;5.296;2023-04-04T06:36:22;102989.00000000001;;;-0.44;88.45
64023;BME280;50264;52.088;5.296;2023-04-04T06:39:34;102996.0;;;-0.44;88.54
64023;BME280;50264;52.088;5.296;2023-04-04T06:41:10;102996.0;;;-0.39;88.6
64023;BME280;50264;52.088;5.296;2023-04-04T06:42:47;103001.0;;;-0.47;88.42
64023;BME280;50264;52.088;5.296;2023-04-04T06:44:23;103005.0;;;-0.41;89.11
64023;BME280;50264;52.088;5.296;2023-04-04T06:47:36;103007.0;;;-0.3;89.05
64023;BME280;50264;52.088;5.296;2023-04-04T06:49:12;103016.00000000001;;;-0.27;88.83
64023;BME280;50264;52.088;5.296;2023-04-04T06:50:48;103018.0;;;-0.26;88.62
64023;BME280;50264;52.088;5.296;2023-04-04T06:54:00;103019.0;;;-0.16;88.64
64023;BME280;50264;52.088;5.296;2023-04-04T06:55:37;103020.0;;;-0.07;88.81
64023;BME280;50264;52.088;5.296;2023-04-04T06:57:13;103018.0;;;0.03;88.72
64023;BME280;50264;52.088;5.296;2023-04-04T07:00:25;103021.0;;;0.19;88.78
64023;BME280;50264;52.088;5.296;2023-04-04T07:02:01;103021.0;;;0.32;88.31
64023;BME280;50264;52.088;5.296;2023-04-04T07:03:37;103027.0;;;0.39;87.85
64023;BME280;50264;52.088;5.296;2023-04-04T07:06:50;103027.0;;;0.49;88.27
64023;BME280;50264;52.088;5.296;2023-04-04T07:08:26;103021.0;;;0.61;87.34
64023;BME280;50264;52.088;5.296;2023-04-04T07:10:05;103014.00000000001;;;0.72;87.79
64023;BME280;50264;52.088;5.296;2023-04-04T07:11:41;103011.99999999999;;;0.87;86.81
64023;BME280;50264;52.088;5.296;2023-04-04T07:14:53;103014.00000000001;;;1.11;88.08
64023;BME280;50264;52.088;5.296;2023-04-04T07:16:29;103017.0;;;1.18;86.77
64023;BME280;50264;52.088;5.296;2023-04-04T07:18:06;103017.0;;;1.35;86.58
64023;BME280;50264;52.088;5.296;2023-04-04T07:21:18;103018.0;;;1.47;86.34
64023;BME280;50264;52.088;5.296;2023-04-04T07:22:54;103022.0;;;1.52;86.51
64023;BME280;50264;52.088;5.296;2023-04-04T07:24:30;103017.0;;;1.72;85.98
64023;BME280;50264;52.088;5.296;2023-04-04T07:27:43;103017.0;;;1.86;85.97
64023;BME280;50264;52.088;5.296;2023-04-04T07:29:19;103020.0;;;1.96;84.81
64023;BME280;50264;52.088;5.296;2023-04-04T07:30:58;103017.0;;;2.07;84.46
64023;BME280;50264;52.088;5.296;2023-04-04T07:32:34;103013.00000000001;;;2.35;82.59
64023;BME280;50264;52.088;5.296;2023-04-04T07:35:46;103008.0;;;2.69;80.91
64023;BME280;50264;52.088;5.296;2023-04-04T07:37:23;103002.0;;;2.79;81.84
64023;BME280;50264;52.088;5.296;2023-04-04T07:38:59;103004.0;;;2.95;80.3
64023;BME280;50264;52.088;5.296;2023-04-04T07:42:11;103007.0;;;3.2;78.75
64023;BME280;50264;52.088;5.296;2023-04-04T07:43:47;103015.00000000001;;;3.27;80.2
64023;BME280;50264;52.088;5.296;2023-04-04T07:45:22;103013.00000000001;;;3.35;80.91
64023;BME280;50264;52.088;5.296;2023-04-04T07:48:34;103008.99999999999;;;3.52;77.47
64023;BME280;50264;52.088;5.296;2023-04-04T07:50:10;103013.00000000001;;;3.6;79.22
64023;BME280;50264;52.088;5.296;2023-04-04T07:51:47;103008.0;;;3.79;76.77
64023;BME280;50264;52.088;5.296;2023-04-04T07:54:58;103008.99999999999;;;3.85;77.3
64023;BME280;50264;52.088;5.296;2023-04-04T07:56:35;103007.0;;;3.9;73.72
64023;BME280;50264;52.088;5.296;2023-04-04T07:58:10;103001.0;;;4.03;75.3
64023;BME280;50264;52.088;5.296;2023-04-04T07:59:46;102999.0;;;4.08;74.73
64023;BME280;50264;52.088;5.296;2023-04-04T08:02:58;103000.0;;;4.28;70.95
64023;BME280;50264;52.088;5.296;2023-04-04T08:04:34;102999.0;;;4.42;72.3
64023;BME280;50264;52.088;5.296;2023-04-04T08:06:11;102996.0;;;4.57;69.48
64023;BME280;50264;52.088;5.296;2023-04-04T08:09:24;102996.0;;;4.7;68.75
64023;BME280;50264;52.088;5.296;2023-04-04T08:11:00;102999.0;;;4.74;69.14
64023;BME280;50264;52.088;5.296;2023-04-04T08:12:37;102995.0;;;4.88;67.16
64023;BME280;50264;52.088;5.296;2023-04-04T08:15:49;102998.0;;;5.03;61.98
64023;BME280;50264;52.088;5.296;2023-04-04T08:17:26;102989.00000000001;;;5.14;62.53
64023;BME280;50264;52.088;5.296;2023-04-04T08:19:02;102992.0;;;5.27;62.22
64023;BME280;50264;52.088;5.296;2023-04-04T08:20:38;102994.0;;;5.36;63.7
64023;BME280;50264;52.088;5.296;2023-04-04T08:23:50;102992.0;;;5.49;60.44
64023;BME280;50264;52.088;5.296;2023-04-04T08:25:26;102992.0;;;5.65;58.9
64023;BME280;50264;52.088;5.296;2023-04-04T08:27:02;102986.99999999999;;;5.67;61.91
64023;BME280;50264;52.088;5.296;2023-04-04T08:30:13;102990.00000000001;;;5.78;58.7
64023;BME280;50264;52.088;5.296;2023-04-04T08:31:50;102989.00000000001;;;5.92;58.79
64023;BME280;50264;52.088;5.296;2023-04-04T08:33:26;102984.99999999999;;;5.94;59.03
64023;BME280;50264;52.088;5.296;2023-04-04T08:36:38;102982.0;;;5.97;57.86
64023;BME280;50264;52.088;5.296;2023-04-04T08:38:14;102982.0;;;6.16;55.43
64023;BME280;50264;52.088;5.296;2023-04-04T08:39:50;102975.0;;;6.38;53.52
64023;BME280;50264;52.088;5.296;2023-04-04T08:43:03;102970.0;;;6.48;54.68
64023;BME280;50264;52.088;5.296;2023-04-04T08:44:40;102975.0;;;6.56;55.37
64023;BME280;50264;52.088;5.296;2023-04-04T08:46:20;102975.0;;;6.69;52.65
64023;BME280;50264;52.088;5.296;2023-04-04T08:47:57;102970.0;;;6.91;53.21
64023;BME280;50264;52.088;5.296;2023-04-04T08:51:14;102975.0;;;7.11;54.68
64023;BME280;50264;52.088;5.296;2023-04-04T08:52:51;102972.0;;;7.06;51.3
64023;BME280;50264;52.088;5.296;2023-04-04T08:54:29;102977.0;;;7.17;49.89
64023;BME280;50264;52.088;5.296;2023-04-04T08:57:42;102976.0;;;7.37;50.27
64023;BME280;50264;52.088;5.296;2023-04-04T08:59:19;102980.0;;;7.55;47.92
64023;BME280;50264;52.088;5.296;2023-04-04T09:00:55;102975.0;;;7.68;50.6
64023;BME280;50264;52.088;5.296;2023-04-04T09:02:34;102977.0;;;7.67;49.2
64023;BME280;50264;52.088;5.296;2023-04-04T09:05:52;102976.0;;;7.77;45.9
64023;BME280;50264;52.088;5.296;2023-04-04T09:07:29;102970.0;;;7.88;49.92
64023;BME280;50264;52.088;5.296;2023-04-04T09:09:07;102969.0;;;8.06;49.16
64023;BME280;50264;52.088;5.296;2023-04-04T09:12:21;102969.0;;;8.13;49.84
64023;BME280;50264;52.088;5.296;2023-04-04T09:13:57;102968.0;;;8.31;51.46
64023;BME280;50264;52.088;5.296;2023-04-04T09:15:37;102976.0;;;8.56;50.13
64023;BME280;50264;52.088;5.296;2023-04-04T09:17:13;102978.0;;;8.65;46.45
64023;BME280;50264;52.088;5.296;2023-04-04T09:20:34;102976.0;;;8.69;48.1
64023;BME280;50264;52.088;5.296;2023-04-04T09:22:14;102976.0;;;8.78;46.86
64023;BME280;50264;52.088;5.296;2023-04-04T09:23:57;102975.0;;;8.98;51.16
64023;BME280;50264;52.088;5.296;2023-04-04T09:25:34;102972.0;;;8.99;46.89
64023;BME280;50264;52.088;5.296;2023-04-04T09:28:51;102975.0;;;9.14;46.38
64023;BME280;50264;52.088;5.296;2023-04-04T09:30:28;102970.0;;;8.92;43.04
64023;BME280;50264;52.088;5.296;2023-04-04T09:32:06;102973.0;;;9.02;43.44
64023;BME280;50264;52.088;5.296;2023-04-04T09:35:18;102974.0;;;8.96;42.23
64023;BME280;50264;52.088;5.296;2023-04-04T09:36:56;102971.0;;;9.26;47.77
64023;BME280;50264;52.088;5.296;2023-04-04T09:38:35;102967.0;;;9.34;44.35
64023;BME280;50264;52.088;5.296;2023-04-04T09:40:13;102971.0;;;9.53;46.73
64023;BME280;50264;52.088;5.296;2023-04-04T09:43:28;102964.00000000001;;;9.63;47.62
64023;BME280;50264;52.088;5.296;2023-04-04T09:45:05;102964.00000000001;;;9.56;46.8
64023;BME280;50264;52.088;5.296;2023-04-04T09:46:43;102958.99999999999;;;9.74;48.12
64023;BME280;50264;52.088;5.296;2023-04-04T09:50:06;102956.0;;;9.91;46.45
64023;BME280;50264;52.088;5.296;2023-04-04T09:51:47;102953.0;;;9.97;46.12
64023;BME280;50264;52.088;5.296;2023-04-04T09:53:23;102950.0;;;9.89;44.57
64023;BME280;50264;52.088;5.296;2023-04-04T09:55:00;102957.0;;;9.83;45.96
64023;BME280;50264;52.088;5.296;2023-04-04T09:58:16;102952.0;;;9.78;42.39
64023;BME280;50264;52.088;5.296;2023-04-04T09:59:56;102955.0;;;9.83;41.95
64023;BME280;50264;52.088;5.296;2023-04-04T10:01:33;102951.0;;;9.92;42.11
64023;BME280;50264;52.088;5.296;2023-04-04T10:03:10;102951.0;;;9.81;43.03
64023;BME280;50264;52.088;5.296;2023-04-04T10:06:24;102952.0;;;9.97;46.61
64023;BME280;50264;52.088;5.296;2023-04-04T10:08:12;102954.0;;;9.96;43.86
64023;BME280;50264;52.088;5.296;2023-04-04T10:09:49;102949.0;;;9.9;46.22
64023;BME280;50264;52.088;5.296;2023-04-04T10:13:05;102946.0;;;9.75;44.57
64023;BME280;50264;52.088;5.296;2023-04-04T10:14:41;102946.0;;;9.9;45.54
64023;BME280;50264;52.088;5.296;2023-04-04T10:16:17;102942.0;;;9.74;44.28
64023;BME280;50264;52.088;5.296;2023-04-04T10:17:55;102933.0;;;9.99;46.35
64023;BME280;50264;52.088;5.296;2023-04-04T10:21:08;102936.99999999999;;;10.18;46.1
64023;BME280;50264;52.088;5.296;2023-04-04T10:22:45;102933.99999999999;;;9.97;43.54
64023;BME280;50264;52.088;5.296;2023-04-04T10:24:21;102931.0;;;9.94;45.61
64023;BME280;50264;52.088;5.296;2023-04-04T10:27:33;102938.00000000001;;;9.83;46.07
64023;BME280;50264;52.088;5.296;2023-04-04T10:29:09;102933.99999999999;;;9.85;41.84
64023;BME280;50264;52.088;5.296;2023-04-04T10:30:48;102926.0;;;9.96;43.82
64023;BME280;50264;52.088;5.296;2023-04-04T10:32:42;102923.0;;;10.01;42.62
64023;BME280;50264;52.088;5.296;2023-04-04T10:36:08;102925.0;;;10.18;46.59
64023;BME280;50264;52.088;5.296;2023-04-04T10:37:54;102923.0;;;10.06;44.16
64023;BME280;50264;52.088;5.296;2023-04-04T10:39:32;102918.0;;;10.28;46.41
64023;BME280;50264;52.088;5.296;2023-04-04T10:41:13;102923.0;;;10.35;46.04
64023;BME280;50264;52.088;5.296;2023-04-04T10:44:28;102916.00000000001;;;10.57;46.12
64023;BME280;50264;52.088;5.296;2023-04-04T10:46:08;102916.00000000001;;;10.52;44.49
64023;BME280;50264;52.088;5.296;2023-04-04T10:47:49;102907.0;;;10.62;44.5
64023;BME280;50264;52.088;5.296;2023-04-04T10:49:26;102913.00000000001;;;10.7;41.31